sensor_id;sensor_type;location;lat;lon;timestamp;P1;durP1;ratioP1;P2;durP2;ratioP2
51792;SDS011;37850;53.178;6.376;2024-01-30T00:01:49;26.80;;;16.63;;
51792;SDS011;37850;53.178;6.376;2024-01-30T00:04:18;23.50;;;15.65;;
51792;SDS011;37850;53.178;6.376;2024-01-30T00:06:44;27.02;;;17.25;;
51792;SDS011;37850;53.178;6.376;2024-01-30T00:09:10;25.98;;;16.90;;
51792;SDS011;37850;53.178;6.376;2024-01-30T00:11:39;26.33;;;17.13;;
51792;SDS011;37850;53.178;6.376;2024-01-30T00:14:05;26.98;;;16.77;;
51792;SDS011;37850;53.178;6.376;2024-01-30T00:16:30;27.23;;;17.13;;
51792;SDS011;37850;53.178;6.376;2024-01-30T00:18:58;33.35;;;16.88;;
51792;SDS011;37850;53.178;6.376;2024-01-30T00:21:24;24.60;;;16.73;;
51792;SDS011;37850;53.178;6.376;2024-01-30T00:23:53;26.63;;;16.98;;
51792;SDS011;37850;53.178;6.376;2024-01-30T00:26:19;27.00;;;17.17;;
51792;SDS011;37850;53.178;6.376;2024-01-30T00:28:45;29.00;;;16.10;;
51792;SDS011;37850;53.178;6.376;2024-01-30T00:31:11;27.25;;;16.27;;
51792;SDS011;37850;53.178;6.376;2024-01-30T00:33:38;27.80;;;16.92;;
51792;SDS011;37850;53.178;6.376;2024-01-30T00:36:05;26.50;;;15.88;;
51792;SDS011;37850;53.178;6.376;2024-01-30T00:38:31;27.25;;;15.93;;
51792;SDS011;37850;53.178;6.376;2024-01-30T00:40:58;24.08;;;16.15;;
51792;SDS011;37850;53.178;6.376;2024-01-30T00:43:23;27.45;;;17.50;;
51792;SDS011;37850;53.178;6.376;2024-01-30T00:45:52;29.67;;;17.65;;
51792;SDS011;37850;53.178;6.376;2024-01-30T00:48:18;28.30;;;17.05;;
51792;SDS011;37850;53.178;6.376;2024-01-30T00:50:44;28.70;;;17.30;;
51792;SDS011;37850;53.178;6.376;2024-01-30T00:53:10;25.85;;;16.30;;
51792;SDS011;37850;53.178;6.376;2024-01-30T00:55:36;29.55;;;17.58;;
51792;SDS011;37850;53.178;6.376;2024-01-30T00:58:02;29.40;;;16.70;;
51792;SDS011;37850;53.178;6.376;2024-01-30T01:00:28;28.15;;;17.17;;
51792;SDS011;37850;53.178;6.376;2024-01-30T01:02:57;28.67;;;17.40;;
51792;SDS011;37850;53.178;6.376;2024-01-30T01:05:24;28.92;;;17.85;;
51792;SDS011;37850;53.178;6.376;2024-01-30T01:07:50;29.73;;;17.67;;
51792;SDS011;37850;53.178;6.376;2024-01-30T01:10:16;29.80;;;18.15;;
51792;SDS011;37850;53.178;6.376;2024-01-30T01:12:44;27.50;;;17.02;;
51792;SDS011;37850;53.178;6.376;2024-01-30T01:15:11;31.38;;;17.52;;
51792;SDS011;37850;53.178;6.376;2024-01-30T01:17:38;27.35;;;17.40;;
51792;SDS011;37850;53.178;6.376;2024-01-30T01:20:04;28.73;;;17.75;;
51792;SDS011;37850;53.178;6.376;2024-01-30T01:22:31;28.50;;;17.67;;
51792;SDS011;37850;53.178;6.376;2024-01-30T01:24:57;27.15;;;17.88;;
51792;SDS011;37850;53.178;6.376;2024-01-30T01:27:24;29.77;;;17.48;;
51792;SDS011;37850;53.178;6.376;2024-01-30T01:29:50;26.13;;;17.88;;
51792;SDS011;37850;53.178;6.376;2024-01-30T01:32:16;28.10;;;17.30;;
51792;SDS011;37850;53.178;6.376;2024-01-30T01:34:42;27.52;;;17.42;;
51792;SDS011;37850;53.178;6.376;2024-01-30T01:37:08;29.75;;;17.13;;
51792;SDS011;37850;53.178;6.376;2024-01-30T01:39:34;25.77;;;16.67;;
51792;SDS011;37850;53.178;6.376;2024-01-30T01:41:59;26.92;;;17.77;;
51792;SDS011;37850;53.178;6.376;2024-01-30T01:44:25;24.45;;;17.13;;
51792;SDS011;37850;53.178;6.376;2024-01-30T01:46:52;27.42;;;17.63;;
51792;SDS011;37850;53.178;6.376;2024-01-30T01:49:19;25.52;;;17.55;;
51792;SDS011;37850;53.178;6.376;2024-01-30T01:51:48;28.27;;;17.75;;
51792;SDS011;37850;53.178;6.376;2024-01-30T01:54:18;30.10;;;17.98;;
51792;SDS011;37850;53.178;6.376;2024-01-30T01:56:44;28.38;;;19.00;;
51792;SDS011;37850;53.178;6.376;2024-01-30T01:59:10;29.10;;;17.88;;
51792;SDS011;37850;53.178;6.376;2024-01-30T02:01:36;28.60;;;18.27;;
51792;SDS011;37850;53.178;6.376;2024-01-30T02:04:03;29.67;;;17.60;;
51792;SDS011;37850;53.178;6.376;2024-01-30T02:06:29;27.88;;;18.02;;
51792;SDS011;37850;53.178;6.376;2024-01-30T02:08:55;29.52;;;18.02;;
51792;SDS011;37850;53.178;6.376;2024-01-30T02:11:21;34.00;;;19.80;;
51792;SDS011;37850;53.178;6.376;2024-01-30T02:13:49;28.45;;;18.75;;
51792;SDS011;37850;53.178;6.376;2024-01-30T02:16:15;28.05;;;18.73;;
51792;SDS011;37850;53.178;6.376;2024-01-30T02:18:44;30.42;;;18.95;;
51792;SDS011;37850;53.178;6.376;2024-01-30T02:21:16;30.88;;;19.30;;
51792;SDS011;37850;53.178;6.376;2024-01-30T02:23:49;32.92;;;18.60;;
51792;SDS011;37850;53.178;6.376;2024-01-30T02:26:16;27.63;;;17.73;;
51792;SDS011;37850;53.178;6.376;2024-01-30T02:28:41;27.40;;;18.13;;
51792;SDS011;37850;53.178;6.376;2024-01-30T02:31:07;32.88;;;19.02;;
51792;SDS011;37850;53.178;6.376;2024-01-30T02:33:33;28.77;;;17.80;;
51792;SDS011;37850;53.178;6.376;2024-01-30T02:35:58;26.58;;;17.63;;
51792;SDS011;37850;53.178;6.376;2024-01-30T02:38:24;26.08;;;17.58;;
51792;SDS011;37850;53.178;6.376;2024-01-30T02:40:51;28.77;;;18.23;;
51792;SDS011;37850;53.178;6.376;2024-01-30T02:43:17;30.30;;;18.70;;
51792;SDS011;37850;53.178;6.376;2024-01-30T02:45:43;27.17;;;18.52;;
51792;SDS011;37850;53.178;6.376;2024-01-30T02:48:09;28.05;;;18.45;;
51792;SDS011;37850;53.178;6.376;2024-01-30T02:50:34;30.73;;;19.23;;
51792;SDS011;37850;53.178;6.376;2024-01-30T02:53:00;25.80;;;17.27;;
51792;SDS011;37850;53.178;6.376;2024-01-30T02:55:26;32.00;;;18.95;;
51792;SDS011;37850;53.178;6.376;2024-01-30T02:57:51;30.20;;;18.95;;
51792;SDS011;37850;53.178;6.376;2024-01-30T03:00:17;26.85;;;17.45;;
51792;SDS011;37850;53.178;6.376;2024-01-30T03:02:44;28.23;;;18.45;;
51792;SDS011;37850;53.178;6.376;2024-01-30T03:05:10;29.33;;;18.05;;
51792;SDS011;37850;53.178;6.376;2024-01-30T03:07:36;27.02;;;16.88;;
51792;SDS011;37850;53.178;6.376;2024-01-30T03:10:02;28.67;;;17.98;;
51792;SDS011;37850;53.178;6.376;2024-01-30T03:12:29;26.75;;;16.98;;
51792;SDS011;37850;53.178;6.376;2024-01-30T03:14:55;30.58;;;17.55;;
51792;SDS011;37850;53.178;6.376;2024-01-30T03:17:21;26.42;;;16.80;;
51792;SDS011;37850;53.178;6.376;2024-01-30T03:19:46;30.70;;;18.17;;
51792;SDS011;37850;53.178;6.376;2024-01-30T03:22:12;29.90;;;18.05;;
51792;SDS011;37850;53.178;6.376;2024-01-30T03:24:38;27.73;;;17.50;;
51792;SDS011;37850;53.178;6.376;2024-01-30T03:27:04;27.13;;;16.17;;
51792;SDS011;37850;53.178;6.376;2024-01-30T03:29:29;26.35;;;16.50;;
51792;SDS011;37850;53.178;6.376;2024-01-30T03:31:55;29.17;;;17.10;;
51792;SDS011;37850;53.178;6.376;2024-01-30T03:34:21;26.42;;;16.98;;
51792;SDS011;37850;53.178;6.376;2024-01-30T03:36:46;27.15;;;16.88;;
51792;SDS011;37850;53.178;6.376;2024-01-30T03:39:12;28.20;;;17.40;;
51792;SDS011;37850;53.178;6.376;2024-01-30T03:41:38;31.85;;;17.63;;
51792;SDS011;37850;53.178;6.376;2024-01-30T03:44:06;29.65;;;17.80;;
51792;SDS011;37850;53.178;6.376;2024-01-30T03:46:32;24.85;;;16.08;;
51792;SDS011;37850;53.178;6.376;2024-01-30T03:48:58;27.40;;;17.13;;
51792;SDS011;37850;53.178;6.376;2024-01-30T03:51:23;29.77;;;18.15;;
51792;SDS011;37850;53.178;6.376;2024-01-30T03:53:50;22.50;;;15.95;;
51792;SDS011;37850;53.178;6.376;2024-01-30T03:56:16;29.00;;;17.30;;
51792;SDS011;37850;53.178;6.376;2024-01-30T03:58:42;25.98;;;16.70;;
51792;SDS011;37850;53.178;6.376;2024-01-30T04:03:40;24.73;;;16.02;;
51792;SDS011;37850;53.178;6.376;2024-01-30T04:06:06;24.88;;;16.70;;
51792;SDS011;37850;53.178;6.376;2024-01-30T04:08:32;25.90;;;16.92;;
51792;SDS011;37850;53.178;6.376;2024-01-30T04:10:58;28.02;;;17.02;;
51792;SDS011;37850;53.178;6.376;2024-01-30T04:13:24;23.10;;;15.55;;
51792;SDS011;37850;53.178;6.376;2024-01-30T04:15:50;24.75;;;15.50;;
51792;SDS011;37850;53.178;6.376;2024-01-30T04:18:16;27.75;;;16.50;;
51792;SDS011;37850;53.178;6.376;2024-01-30T04:20:41;26.63;;;15.32;;
51792;SDS011;37850;53.178;6.376;2024-01-30T04:23:07;26.70;;;16.45;;
51792;SDS011;37850;53.178;6.376;2024-01-30T04:25:33;22.05;;;15.18;;
51792;SDS011;37850;53.178;6.376;2024-01-30T04:27:58;24.65;;;16.33;;
51792;SDS011;37850;53.178;6.376;2024-01-30T04:30:24;22.50;;;15.63;;
51792;SDS011;37850;53.178;6.376;2024-01-30T04:32:50;23.70;;;14.65;;
51792;SDS011;37850;53.178;6.376;2024-01-30T04:35:16;24.40;;;16.00;;
51792;SDS011;37850;53.178;6.376;2024-01-30T04:37:41;26.23;;;16.05;;
51792;SDS011;37850;53.178;6.376;2024-01-30T04:40:07;28.55;;;15.52;;
51792;SDS011;37850;53.178;6.376;2024-01-30T04:42:34;26.45;;;16.05;;
51792;SDS011;37850;53.178;6.376;2024-01-30T04:45:00;23.70;;;15.00;;
51792;SDS011;37850;53.178;6.376;2024-01-30T04:47:26;26.63;;;15.88;;
51792;SDS011;37850;53.178;6.376;2024-01-30T04:49:51;25.35;;;15.20;;
51792;SDS011;37850;53.178;6.376;2024-01-30T04:52:17;26.15;;;15.15;;
51792;SDS011;37850;53.178;6.376;2024-01-30T04:54:43;34.17;;;15.82;;
51792;SDS011;37850;53.178;6.376;2024-01-30T04:57:08;22.85;;;14.40;;
51792;SDS011;37850;53.178;6.376;2024-01-30T04:59:37;24.92;;;14.82;;
51792;SDS011;37850;53.178;6.376;2024-01-30T05:02:02;24.70;;;14.85;;
51792;SDS011;37850;53.178;6.376;2024-01-30T05:04:28;23.95;;;14.57;;
51792;SDS011;37850;53.178;6.376;2024-01-30T05:06:54;24.02;;;14.85;;
51792;SDS011;37850;53.178;6.376;2024-01-30T05:09:19;24.15;;;14.30;;
51792;SDS011;37850;53.178;6.376;2024-01-30T05:11:48;22.13;;;14.55;;
51792;SDS011;37850;53.178;6.376;2024-01-30T05:14:13;22.88;;;14.88;;
51792;SDS011;37850;53.178;6.376;2024-01-30T05:16:40;22.27;;;14.13;;
51792;SDS011;37850;53.178;6.376;2024-01-30T05:21:38;22.65;;;13.27;;
51792;SDS011;37850;53.178;6.376;2024-01-30T05:24:03;21.83;;;13.50;;
51792;SDS011;37850;53.178;6.376;2024-01-30T05:26:29;22.35;;;13.38;;
51792;SDS011;37850;53.178;6.376;2024-01-30T05:28:55;22.95;;;13.95;;
51792;SDS011;37850;53.178;6.376;2024-01-30T05:31:21;21.25;;;14.27;;
51792;SDS011;37850;53.178;6.376;2024-01-30T05:33:47;22.15;;;14.02;;
51792;SDS011;37850;53.178;6.376;2024-01-30T05:36:13;25.02;;;14.20;;
51792;SDS011;37850;53.178;6.376;2024-01-30T05:38:38;23.65;;;14.40;;
51792;SDS011;37850;53.178;6.376;2024-01-30T05:41:04;20.23;;;13.27;;
51792;SDS011;37850;53.178;6.376;2024-01-30T05:43:30;21.70;;;14.20;;
51792;SDS011;37850;53.178;6.376;2024-01-30T05:45:56;22.77;;;12.82;;
51792;SDS011;37850;53.178;6.376;2024-01-30T05:48:22;21.02;;;13.68;;
51792;SDS011;37850;53.178;6.376;2024-01-30T05:50:48;21.52;;;13.40;;
51792;SDS011;37850;53.178;6.376;2024-01-30T05:53:13;19.58;;;13.75;;
51792;SDS011;37850;53.178;6.376;2024-01-30T05:55:39;22.55;;;13.65;;
51792;SDS011;37850;53.178;6.376;2024-01-30T05:58:05;24.25;;;13.63;;
51792;SDS011;37850;53.178;6.376;2024-01-30T06:00:31;21.75;;;13.52;;
51792;SDS011;37850;53.178;6.376;2024-01-30T06:02:57;21.65;;;13.48;;
51792;SDS011;37850;53.178;6.376;2024-01-30T06:05:22;23.70;;;14.38;;
51792;SDS011;37850;53.178;6.376;2024-01-30T06:07:48;19.42;;;12.48;;
51792;SDS011;37850;53.178;6.376;2024-01-30T06:10:14;19.40;;;13.10;;
51792;SDS011;37850;53.178;6.376;2024-01-30T06:12:40;24.55;;;13.75;;
51792;SDS011;37850;53.178;6.376;2024-01-30T06:15:06;20.85;;;13.50;;
51792;SDS011;37850;53.178;6.376;2024-01-30T06:17:32;22.73;;;13.75;;
51792;SDS011;37850;53.178;6.376;2024-01-30T06:19:58;22.50;;;13.45;;
51792;SDS011;37850;53.178;6.376;2024-01-30T06:22:24;21.63;;;13.48;;
51792;SDS011;37850;53.178;6.376;2024-01-30T06:24:50;23.23;;;13.30;;
51792;SDS011;37850;53.178;6.376;2024-01-30T06:27:18;20.98;;;13.73;;
51792;SDS011;37850;53.178;6.376;2024-01-30T06:29:44;22.77;;;13.50;;
51792;SDS011;37850;53.178;6.376;2024-01-30T06:32:10;18.75;;;12.55;;
51792;SDS011;37850;53.178;6.376;2024-01-30T06:34:35;24.63;;;13.27;;
51792;SDS011;37850;53.178;6.376;2024-01-30T06:37:01;25.40;;;13.85;;
51792;SDS011;37850;53.178;6.376;2024-01-30T06:39:27;22.27;;;13.57;;
51792;SDS011;37850;53.178;6.376;2024-01-30T06:41:53;20.55;;;13.57;;
51792;SDS011;37850;53.178;6.376;2024-01-30T06:44:18;24.13;;;13.32;;
51792;SDS011;37850;53.178;6.376;2024-01-30T06:46:44;20.75;;;13.27;;
51792;SDS011;37850;53.178;6.376;2024-01-30T06:49:10;22.55;;;13.57;;
51792;SDS011;37850;53.178;6.376;2024-01-30T06:51:36;23.05;;;13.45;;
51792;SDS011;37850;53.178;6.376;2024-01-30T06:54:01;24.52;;;14.15;;
51792;SDS011;37850;53.178;6.376;2024-01-30T06:56:27;21.77;;;12.90;;
51792;SDS011;37850;53.178;6.376;2024-01-30T06:58:53;19.92;;;13.13;;
51792;SDS011;37850;53.178;6.376;2024-01-30T07:01:19;22.90;;;13.80;;
51792;SDS011;37850;53.178;6.376;2024-01-30T07:03:45;24.20;;;12.52;;
51792;SDS011;37850;53.178;6.376;2024-01-30T07:06:11;23.50;;;13.38;;
51792;SDS011;37850;53.178;6.376;2024-01-30T07:08:37;20.70;;;12.77;;
51792;SDS011;37850;53.178;6.376;2024-01-30T07:11:04;18.50;;;11.73;;
51792;SDS011;37850;53.178;6.376;2024-01-30T07:13:31;23.35;;;13.38;;
51792;SDS011;37850;53.178;6.376;2024-01-30T07:15:57;23.88;;;13.45;;
51792;SDS011;37850;53.178;6.376;2024-01-30T07:18:23;21.13;;;12.88;;
51792;SDS011;37850;53.178;6.376;2024-01-30T07:20:48;21.10;;;12.45;;
51792;SDS011;37850;53.178;6.376;2024-01-30T07:23:15;25.35;;;13.02;;
51792;SDS011;37850;53.178;6.376;2024-01-30T07:25:46;25.60;;;13.60;;
51792;SDS011;37850;53.178;6.376;2024-01-30T07:28:14;21.95;;;13.02;;
51792;SDS011;37850;53.178;6.376;2024-01-30T07:30:43;19.90;;;12.88;;
51792;SDS011;37850;53.178;6.376;2024-01-30T07:33:09;24.65;;;13.65;;
51792;SDS011;37850;53.178;6.376;2024-01-30T07:35:35;21.30;;;13.38;;
51792;SDS011;37850;53.178;6.376;2024-01-30T07:38:01;24.95;;;12.77;;
51792;SDS011;37850;53.178;6.376;2024-01-30T07:40:27;21.85;;;12.85;;
51792;SDS011;37850;53.178;6.376;2024-01-30T07:42:53;21.00;;;13.20;;
51792;SDS011;37850;53.178;6.376;2024-01-30T07:45:19;21.48;;;13.00;;
51792;SDS011;37850;53.178;6.376;2024-01-30T07:47:50;22.40;;;13.52;;
51792;SDS011;37850;53.178;6.376;2024-01-30T07:50:17;20.27;;;12.95;;
51792;SDS011;37850;53.178;6.376;2024-01-30T07:52:43;25.10;;;13.20;;
51792;SDS011;37850;53.178;6.376;2024-01-30T07:55:09;19.83;;;12.35;;
51792;SDS011;37850;53.178;6.376;2024-01-30T07:57:34;22.05;;;12.80;;
51792;SDS011;37850;53.178;6.376;2024-01-30T08:00:04;20.50;;;11.68;;
51792;SDS011;37850;53.178;6.376;2024-01-30T08:02:32;21.27;;;12.65;;
51792;SDS011;37850;53.178;6.376;2024-01-30T08:04:58;23.38;;;12.95;;
51792;SDS011;37850;53.178;6.376;2024-01-30T08:07:23;22.30;;;12.98;;
51792;SDS011;37850;53.178;6.376;2024-01-30T08:09:49;21.67;;;12.88;;
51792;SDS011;37850;53.178;6.376;2024-01-30T08:12:18;24.15;;;12.38;;
51792;SDS011;37850;53.178;6.376;2024-01-30T08:14:44;19.17;;;12.95;;
51792;SDS011;37850;53.178;6.376;2024-01-30T08:17:09;20.98;;;12.75;;
51792;SDS011;37850;53.178;6.376;2024-01-30T08:19:35;20.92;;;12.50;;
51792;SDS011;37850;53.178;6.376;2024-01-30T08:22:01;19.27;;;12.35;;
51792;SDS011;37850;53.178;6.376;2024-01-30T08:24:27;22.48;;;12.77;;
51792;SDS011;37850;53.178;6.376;2024-01-30T08:26:52;22.20;;;13.30;;
51792;SDS011;37850;53.178;6.376;2024-01-30T08:29:18;20.60;;;11.95;;
51792;SDS011;37850;53.178;6.376;2024-01-30T08:31:44;19.02;;;11.80;;
51792;SDS011;37850;53.178;6.376;2024-01-30T08:34:11;18.60;;;12.45;;
51792;SDS011;37850;53.178;6.376;2024-01-30T08:36:37;20.27;;;11.80;;
51792;SDS011;37850;53.178;6.376;2024-01-30T08:39:03;20.52;;;11.25;;
51792;SDS011;37850;53.178;6.376;2024-01-30T08:41:30;19.40;;;11.90;;
51792;SDS011;37850;53.178;6.376;2024-01-30T08:43:56;20.98;;;12.27;;
51792;SDS011;37850;53.178;6.376;2024-01-30T08:46:21;17.13;;;11.68;;
51792;SDS011;37850;53.178;6.376;2024-01-30T08:48:47;20.77;;;12.25;;
51792;SDS011;37850;53.178;6.376;2024-01-30T08:51:13;16.42;;;11.07;;
51792;SDS011;37850;53.178;6.376;2024-01-30T08:53:40;19.80;;;11.93;;
51792;SDS011;37850;53.178;6.376;2024-01-30T08:56:06;18.70;;;12.10;;
51792;SDS011;37850;53.178;6.376;2024-01-30T08:58:32;17.55;;;11.13;;
51792;SDS011;37850;53.178;6.376;2024-01-30T09:00:58;23.92;;;11.48;;
51792;SDS011;37850;53.178;6.376;2024-01-30T09:03:24;21.55;;;11.90;;
51792;SDS011;37850;53.178;6.376;2024-01-30T09:05:50;16.63;;;10.77;;
51792;SDS011;37850;53.178;6.376;2024-01-30T09:08:16;20.40;;;10.60;;
51792;SDS011;37850;53.178;6.376;2024-01-30T09:10:42;18.52;;;11.48;;
51792;SDS011;37850;53.178;6.376;2024-01-30T09:13:08;19.75;;;11.73;;
51792;SDS011;37850;53.178;6.376;2024-01-30T09:15:33;18.13;;;10.75;;
51792;SDS011;37850;53.178;6.376;2024-01-30T09:18:00;21.45;;;11.50;;
51792;SDS011;37850;53.178;6.376;2024-01-30T09:20:26;20.17;;;11.35;;
51792;SDS011;37850;53.178;6.376;2024-01-30T09:22:51;18.50;;;11.88;;
51792;SDS011;37850;53.178;6.376;2024-01-30T09:25:17;19.73;;;11.80;;
51792;SDS011;37850;53.178;6.376;2024-01-30T09:27:44;19.48;;;11.57;;
51792;SDS011;37850;53.178;6.376;2024-01-30T09:30:09;19.23;;;11.60;;
51792;SDS011;37850;53.178;6.376;2024-01-30T09:32:35;19.55;;;11.77;;
51792;SDS011;37850;53.178;6.376;2024-01-30T09:35:01;20.10;;;11.55;;
51792;SDS011;37850;53.178;6.376;2024-01-30T09:37:27;17.33;;;11.13;;
51792;SDS011;37850;53.178;6.376;2024-01-30T09:39:53;20.15;;;11.02;;
51792;SDS011;37850;53.178;6.376;2024-01-30T09:44:51;23.88;;;11.43;;
51792;SDS011;37850;53.178;6.376;2024-01-30T09:47:18;21.27;;;11.55;;
51792;SDS011;37850;53.178;6.376;2024-01-30T09:49:44;20.95;;;11.88;;
51792;SDS011;37850;53.178;6.376;2024-01-30T09:52:10;20.92;;;11.85;;
51792;SDS011;37850;53.178;6.376;2024-01-30T09:54:37;20.05;;;11.63;;
51792;SDS011;37850;53.178;6.376;2024-01-30T09:57:03;22.08;;;11.13;;
51792;SDS011;37850;53.178;6.376;2024-01-30T09:59:30;20.25;;;12.10;;
51792;SDS011;37850;53.178;6.376;2024-01-30T10:01:56;21.08;;;11.05;;
51792;SDS011;37850;53.178;6.376;2024-01-30T10:04:22;21.27;;;11.32;;
51792;SDS011;37850;53.178;6.376;2024-01-30T10:06:49;21.13;;;11.88;;
51792;SDS011;37850;53.178;6.376;2024-01-30T10:09:16;21.67;;;12.70;;
51792;SDS011;37850;53.178;6.376;2024-01-30T10:11:41;19.90;;;11.73;;
51792;SDS011;37850;53.178;6.376;2024-01-30T10:14:07;21.83;;;11.38;;
51792;SDS011;37850;53.178;6.376;2024-01-30T10:16:34;19.88;;;11.85;;
51792;SDS011;37850;53.178;6.376;2024-01-30T10:19:00;20.35;;;11.02;;
51792;SDS011;37850;53.178;6.376;2024-01-30T10:21:26;20.00;;;11.27;;
51792;SDS011;37850;53.178;6.376;2024-01-30T10:23:52;21.75;;;11.45;;
51792;SDS011;37850;53.178;6.376;2024-01-30T10:26:18;19.30;;;11.07;;
51792;SDS011;37850;53.178;6.376;2024-01-30T10:28:44;18.55;;;11.32;;
51792;SDS011;37850;53.178;6.376;2024-01-30T10:31:09;23.77;;;11.88;;
51792;SDS011;37850;53.178;6.376;2024-01-30T10:33:35;22.55;;;11.45;;
51792;SDS011;37850;53.178;6.376;2024-01-30T10:36:04;19.90;;;10.73;;
51792;SDS011;37850;53.178;6.376;2024-01-30T10:38:31;20.80;;;10.80;;
51792;SDS011;37850;53.178;6.376;2024-01-30T10:40:58;23.70;;;11.80;;
51792;SDS011;37850;53.178;6.376;2024-01-30T10:43:32;21.75;;;11.50;;
51792;SDS011;37850;53.178;6.376;2024-01-30T10:46:10;21.92;;;11.43;;
51792;SDS011;37850;53.178;6.376;2024-01-30T10:48:42;18.70;;;10.98;;
51792;SDS011;37850;53.178;6.376;2024-01-30T10:51:10;23.67;;;11.15;;
51792;SDS011;37850;53.178;6.376;2024-01-30T10:53:37;22.27;;;11.40;;
51792;SDS011;37850;53.178;6.376;2024-01-30T10:56:04;22.95;;;11.00;;
51792;SDS011;37850;53.178;6.376;2024-01-30T10:58:31;15.77;;;9.85;;
51792;SDS011;37850;53.178;6.376;2024-01-30T11:00:56;21.60;;;11.18;;
51792;SDS011;37850;53.178;6.376;2024-01-30T11:03:23;22.02;;;10.25;;
51792;SDS011;37850;53.178;6.376;2024-01-30T11:05:49;17.42;;;7.95;;
51792;SDS011;37850;53.178;6.376;2024-01-30T11:08:24;18.13;;;8.75;;
51792;SDS011;37850;53.178;6.376;2024-01-30T11:10:55;17.42;;;8.23;;
51792;SDS011;37850;53.178;6.376;2024-01-30T11:13:22;22.02;;;8.20;;
51792;SDS011;37850;53.178;6.376;2024-01-30T11:15:51;19.20;;;8.48;;
51792;SDS011;37850;53.178;6.376;2024-01-30T11:18:26;19.67;;;7.60;;
51792;SDS011;37850;53.178;6.376;2024-01-30T11:20:58;16.27;;;7.68;;
51792;SDS011;37850;53.178;6.376;2024-01-30T11:23:26;15.35;;;6.55;;
51792;SDS011;37850;53.178;6.376;2024-01-30T11:25:52;17.30;;;6.50;;
51792;SDS011;37850;53.178;6.376;2024-01-30T11:28:19;16.35;;;7.20;;
51792;SDS011;37850;53.178;6.376;2024-01-30T11:30:47;21.88;;;7.15;;
51792;SDS011;37850;53.178;6.376;2024-01-30T11:33:16;18.27;;;7.13;;
51792;SDS011;37850;53.178;6.376;2024-01-30T11:35:56;17.48;;;6.57;;
51792;SDS011;37850;53.178;6.376;2024-01-30T11:38:25;19.67;;;7.28;;
51792;SDS011;37850;53.178;6.376;2024-01-30T11:40:54;13.38;;;5.88;;
51792;SDS011;37850;53.178;6.376;2024-01-30T11:43:21;13.27;;;5.05;;
51792;SDS011;37850;53.178;6.376;2024-01-30T11:45:48;12.68;;;4.20;;
51792;SDS011;37850;53.178;6.376;2024-01-30T11:48:14;10.60;;;3.30;;
51792;SDS011;37850;53.178;6.376;2024-01-30T11:50:40;10.27;;;2.97;;
51792;SDS011;37850;53.178;6.376;2024-01-30T11:53:06;8.07;;;1.88;;
51792;SDS011;37850;53.178;6.376;2024-01-30T11:55:32;8.43;;;2.08;;
51792;SDS011;37850;53.178;6.376;2024-01-30T11:57:59;7.43;;;1.98;;
51792;SDS011;37850;53.178;6.376;2024-01-30T12:00:25;8.38;;;1.98;;
51792;SDS011;37850;53.178;6.376;2024-01-30T12:02:51;7.10;;;1.67;;
51792;SDS011;37850;53.178;6.376;2024-01-30T12:05:24;4.57;;;1.30;;
51792;SDS011;37850;53.178;6.376;2024-01-30T12:07:50;5.28;;;1.40;;
51792;SDS011;37850;53.178;6.376;2024-01-30T12:10:16;5.05;;;1.00;;
51792;SDS011;37850;53.178;6.376;2024-01-30T12:12:46;5.40;;;1.25;;
51792;SDS011;37850;53.178;6.376;2024-01-30T12:15:13;3.38;;;1.00;;
51792;SDS011;37850;53.178;6.376;2024-01-30T12:17:39;3.33;;;0.90;;
51792;SDS011;37850;53.178;6.376;2024-01-30T12:22:43;3.60;;;0.90;;
51792;SDS011;37850;53.178;6.376;2024-01-30T12:25:20;6.40;;;1.20;;
51792;SDS011;37850;53.178;6.376;2024-01-30T12:27:49;5.05;;;0.98;;
51792;SDS011;37850;53.178;6.376;2024-01-30T12:30:16;3.75;;;0.90;;
51792;SDS011;37850;53.178;6.376;2024-01-30T12:32:44;6.75;;;1.20;;
51792;SDS011;37850;53.178;6.376;2024-01-30T12:35:11;4.88;;;0.90;;
51792;SDS011;37850;53.178;6.376;2024-01-30T12:37:38;5.03;;;1.38;;
51792;SDS011;37850;53.178;6.376;2024-01-30T12:40:04;6.68;;;1.27;;
51792;SDS011;37850;53.178;6.376;2024-01-30T12:42:34;4.85;;;1.02;;
51792;SDS011;37850;53.178;6.376;2024-01-30T12:45:01;4.32;;;0.85;;
51792;SDS011;37850;53.178;6.376;2024-01-30T12:47:29;5.53;;;0.90;;
51792;SDS011;37850;53.178;6.376;2024-01-30T12:49:55;7.93;;;1.20;;
51792;SDS011;37850;53.178;6.376;2024-01-30T12:52:21;4.57;;;1.08;;
51792;SDS011;37850;53.178;6.376;2024-01-30T12:54:47;5.93;;;1.27;;
51792;SDS011;37850;53.178;6.376;2024-01-30T12:57:13;4.88;;;1.08;;
51792;SDS011;37850;53.178;6.376;2024-01-30T12:59:39;3.78;;;0.95;;
51792;SDS011;37850;53.178;6.376;2024-01-30T13:02:05;5.72;;;1.70;;
51792;SDS011;37850;53.178;6.376;2024-01-30T13:04:32;5.97;;;0.90;;
51792;SDS011;37850;53.178;6.376;2024-01-30T13:06:58;6.00;;;1.30;;
51792;SDS011;37850;53.178;6.376;2024-01-30T13:09:25;5.20;;;1.30;;
51792;SDS011;37850;53.178;6.376;2024-01-30T13:11:51;5.85;;;1.13;;
51792;SDS011;37850;53.178;6.376;2024-01-30T13:14:17;3.10;;;0.90;;
51792;SDS011;37850;53.178;6.376;2024-01-30T13:16:44;2.25;;;0.75;;
51792;SDS011;37850;53.178;6.376;2024-01-30T13:19:10;5.28;;;1.08;;
51792;SDS011;37850;53.178;6.376;2024-01-30T13:21:36;2.38;;;0.70;;
51792;SDS011;37850;53.178;6.376;2024-01-30T13:24:02;8.85;;;1.10;;
51792;SDS011;37850;53.178;6.376;2024-01-30T13:26:29;4.15;;;0.95;;
51792;SDS011;37850;53.178;6.376;2024-01-30T13:28:56;8.50;;;1.25;;
51792;SDS011;37850;53.178;6.376;2024-01-30T13:31:22;6.07;;;1.30;;
51792;SDS011;37850;53.178;6.376;2024-01-30T13:33:47;6.05;;;1.08;;
51792;SDS011;37850;53.178;6.376;2024-01-30T13:36:14;3.22;;;0.85;;
51792;SDS011;37850;53.178;6.376;2024-01-30T13:38:39;4.30;;;0.93;;
51792;SDS011;37850;53.178;6.376;2024-01-30T13:41:05;4.68;;;1.20;;
51792;SDS011;37850;53.178;6.376;2024-01-30T13:43:31;4.03;;;1.00;;
51792;SDS011;37850;53.178;6.376;2024-01-30T13:45:57;2.17;;;0.90;;
51792;SDS011;37850;53.178;6.376;2024-01-30T13:48:23;3.30;;;1.10;;
51792;SDS011;37850;53.178;6.376;2024-01-30T13:50:49;5.07;;;1.15;;
51792;SDS011;37850;53.178;6.376;2024-01-30T13:53:15;6.47;;;0.90;;
51792;SDS011;37850;53.178;6.376;2024-01-30T13:55:40;3.00;;;1.08;;
51792;SDS011;37850;53.178;6.376;2024-01-30T13:58:06;6.68;;;1.20;;
51792;SDS011;37850;53.178;6.376;2024-01-30T14:00:33;5.22;;;0.90;;
51792;SDS011;37850;53.178;6.376;2024-01-30T14:02:59;4.63;;;1.50;;
51792;SDS011;37850;53.178;6.376;2024-01-30T14:05:25;5.63;;;1.10;;
51792;SDS011;37850;53.178;6.376;2024-01-30T14:07:53;4.97;;;1.00;;
51792;SDS011;37850;53.178;6.376;2024-01-30T14:10:18;5.72;;;1.35;;
51792;SDS011;37850;53.178;6.376;2024-01-30T14:12:45;5.82;;;1.42;;
51792;SDS011;37850;53.178;6.376;2024-01-30T14:15:13;4.95;;;1.35;;
51792;SDS011;37850;53.178;6.376;2024-01-30T14:17:47;4.57;;;0.93;;
51792;SDS011;37850;53.178;6.376;2024-01-30T14:20:15;3.35;;;1.10;;
51792;SDS011;37850;53.178;6.376;2024-01-30T14:22:43;2.45;;;0.75;;
51792;SDS011;37850;53.178;6.376;2024-01-30T14:25:09;1.90;;;0.85;;
51792;SDS011;37850;53.178;6.376;2024-01-30T14:27:35;2.10;;;0.88;;
51792;SDS011;37850;53.178;6.376;2024-01-30T14:30:01;5.35;;;1.15;;
51792;SDS011;37850;53.178;6.376;2024-01-30T14:32:28;4.80;;;1.10;;